Pagina principale
METAR-TAF:

METAR-TAF

Aeroporti :

Laodicea, Siria

latitudine: 35-32N, longitudine: 035-46E, altezza: 7 m

Osservazione

Il bollettino è stato emesso 31 minuti fa, alle 13:00 UTC
Vento 4 kt da ovest/nord-ovest
Temperature 27°C
Umidità 54%
Pressione 1014 hPa
Visibilità 10 km o più
Poco nuvoloso ad un'altezza di 3000 ft
Nuvoloso ad un'altezza di 20000 ft

METAR: OSLK 261300Z 29004KT 9999 FEW030 BKN200 27/17 Q1014

Ora: 16:31 (13:31 UTC)

Previsione

Il bollettino è stato emesso 3 ore e 31 minuti fa, alle 10:00 UTC
Previsione valida dal 26 alle 12 UTC al 27 alle 12 UTC
Vento 10 kt da ovest
Visibilità 10 km o più
Nubi sparse ad un'altezza di 3000 ft
Temporaneamente
dal 26 alle 20 UTC al 27 alle 06 UTC
Vento 5 kt da est/nord-est
Visibilità 10 km o più
nessuna nube inferiore a 1500 m e nessun cumulonembo

TAF: OSLK 261000Z 2612/2712 27010KT 9999 SCT030 TEMPO 2620/2706 06005KT CAVOK

Osservazioni e previsioni meteorologiche di più di 4000 aeroporti (messaggi METAR e TAF).

Le stazioni disponibili sono rappresentate dai dischi gialli e rossi sulla carta.

Puntare il mouse per vedere il nome della stazione.

Clicca sopra per visualizzare le osservazioni e previsioni meteorologiche.

Per cambiare la mappa : fare clic sui pulsanti verdi con una croce nera per ingrandire, il pulsante verde con un trattino per diminuire, o sulla freccia verde per le mappe adiacenti.


METAR-TAF: